createdAt,value
2022-10-06T00:06:27.857Z,66.6
2022-10-06T00:11:27.852Z,66.6
2022-10-06T00:16:27.865Z,66.7
2022-10-06T00:26:27.857Z,66.7
2022-10-06T00:31:27.907Z,66.8
2022-10-06T00:56:27.863Z,66.9
2022-10-06T01:01:27.893Z,66.9
2022-10-06T01:06:27.871Z,66.9
2022-10-06T01:16:27.882Z,66.8
2022-10-06T01:21:27.855Z,66.8
2022-10-06T01:31:27.892Z,66.7
2022-10-06T01:36:27.889Z,66.8
2022-10-06T01:41:27.880Z,66.7
2022-10-06T01:51:27.873Z,66.8
2022-10-06T02:11:27.888Z,66.8
2022-10-06T02:16:27.937Z,66.8
2022-10-06T02:26:27.864Z,66.7
2022-10-06T02:31:27.978Z,66.6
2022-10-06T02:41:27.898Z,66.5
2022-10-06T02:51:27.886Z,66.5
2022-10-06T02:56:27.871Z,66.5
2022-10-06T03:01:27.944Z,66.5
2022-10-06T03:11:28.044Z,66.4
2022-10-06T03:31:27.976Z,66.2
2022-10-06T03:36:27.880Z,66.1
2022-10-06T03:46:27.954Z,66.1
2022-10-06T03:56:27.927Z,66
2022-10-06T04:06:27.872Z,65.9
2022-10-06T04:11:27.905Z,65.8
2022-10-06T04:21:27.894Z,65.7
2022-10-06T04:31:28.007Z,65.6
2022-10-06T04:46:42.690Z,65.3
2022-10-06T04:56:27.890Z,65.3
2022-10-06T05:06:27.987Z,65.1
2022-10-06T05:16:27.941Z,65
2022-10-06T05:21:27.914Z,65
2022-10-06T05:31:28.050Z,64.7
2022-10-06T05:36:27.900Z,64.6
2022-10-06T05:41:27.897Z,64.6
2022-10-06T05:46:27.919Z,64.6
2022-10-06T06:06:27.946Z,64.1
2022-10-06T06:16:27.965Z,63.8
2022-10-06T06:26:27.951Z,63.8
2022-10-06T06:36:27.900Z,63.8
2022-10-06T06:41:27.930Z,63.6
2022-10-06T06:51:27.957Z,63.6
2022-10-06T07:01:28.080Z,63.6
2022-10-06T07:06:28.585Z,63.4
2022-10-06T07:26:27.938Z,63.2
2022-10-06T07:31:27.997Z,63
2022-10-06T07:41:27.915Z,63
2022-10-06T07:46:27.984Z,63.1
2022-10-06T07:56:27.937Z,62.8
2022-10-06T08:01:27.957Z,62.7
2022-10-06T08:11:27.971Z,62.7
2022-10-06T08:16:28.026Z,62.6
2022-10-06T08:41:27.954Z,62.5
2022-10-06T08:46:27.919Z,62.5
2022-10-06T08:51:27.919Z,62.3
2022-10-06T09:01:28.023Z,62.2
2022-10-06T09:11:27.948Z,62.3
2022-10-06T09:16:28.011Z,62.4
2022-10-06T09:26:27.948Z,62.3
2022-10-06T09:36:27.930Z,62.3
2022-10-06T09:41:27.956Z,62.4
2022-10-06T10:01:28.052Z,62.5
2022-10-06T10:11:27.935Z,62.4
2022-10-06T10:16:28.029Z,62.4
2022-10-06T10:21:27.975Z,62.4
2022-10-06T10:31:28.068Z,62.4
2022-10-06T10:36:27.946Z,62.3
2022-10-06T10:41:28.008Z,62.3
2022-10-06T10:46:27.992Z,62.3
2022-10-06T10:56:27.977Z,62.3
2022-10-06T11:16:28.019Z,62.1
2022-10-06T11:21:27.941Z,62.2
2022-10-06T11:26:27.974Z,62.1
2022-10-06T11:36:27.981Z,61.9
2022-10-06T11:46:31.265Z,62
2022-10-06T11:51:27.972Z,62.1
2022-10-06T12:01:27.965Z,61.8
2022-10-06T12:06:27.947Z,61.9
2022-10-06T12:11:27.961Z,61.9
2022-10-06T12:36:27.988Z,61.9
2022-10-06T12:41:27.963Z,61.7
2022-10-06T12:46:28.046Z,61.7
2022-10-06T12:56:28.072Z,61.6
2022-10-06T13:01:28.111Z,61.5
2022-10-06T13:11:27.972Z,61.5
2022-10-06T13:16:28.045Z,61.5
2022-10-06T13:21:27.968Z,61.4
2022-10-06T13:31:27.989Z,61.3
2022-10-06T13:36:28.020Z,61.2
2022-10-06T14:06:28.007Z,61.1
2022-10-06T14:11:27.995Z,60.9
2022-10-06T14:21:28.096Z,61
2022-10-06T14:26:28.006Z,61
2022-10-06T14:36:27.985Z,60.7
2022-10-06T14:41:28.028Z,60.7
2022-10-06T14:51:29.335Z,60.7
2022-10-06T15:11:28.012Z,60.5
2022-10-06T15:16:28.004Z,60.6
2022-10-06T15:26:28.015Z,60.5
2022-10-06T15:36:28.019Z,60.4
2022-10-06T15:41:28.016Z,60.3
2022-10-06T15:46:28.043Z,60.3
2022-10-06T15:51:28.001Z,60.3
2022-10-06T15:56:28.037Z,60.4
2022-10-06T16:06:28.024Z,60.2
2022-10-06T16:31:28.134Z,59.9
2022-10-06T16:36:28.016Z,59.8
2022-10-06T16:41:28.032Z,59.7
2022-10-06T16:51:28.044Z,60
2022-10-06T16:56:28.009Z,60
2022-10-06T17:06:28.013Z,59.6
2022-10-06T17:11:28.045Z,59.7
2022-10-06T17:31:28.153Z,59.7
2022-10-06T17:46:28.022Z,59.6
2022-10-06T17:51:28.081Z,59.6
2022-10-06T18:01:28.105Z,59.6
2022-10-06T18:06:28.050Z,59.6
2022-10-06T18:16:28.140Z,59.5
2022-10-06T18:21:28.040Z,59.6
2022-10-06T18:26:28.037Z,59.4
2022-10-06T18:36:28.058Z,59.3
2022-10-06T18:41:28.030Z,59.5
2022-10-06T18:46:28.149Z,59.4
2022-10-06T18:56:28.164Z,59.6
2022-10-06T19:11:28.044Z,59
2022-10-06T19:21:28.091Z,58.8
2022-10-06T19:31:28.057Z,58.9
2022-10-06T19:41:28.069Z,58.9
2022-10-06T19:51:28.073Z,58.7
2022-10-06T20:01:28.168Z,59.4
2022-10-06T20:06:28.069Z,58.8
2022-10-06T20:11:28.055Z,58.7
2022-10-06T20:31:28.102Z,58.5
2022-10-06T20:36:28.058Z,58.4
2022-10-06T20:46:28.103Z,58.2
2022-10-06T20:51:28.084Z,58.2
2022-10-06T20:56:28.066Z,58.3
2022-10-06T21:01:28.207Z,58.1
2022-10-06T21:11:28.139Z,58.1
2022-10-06T21:16:28.106Z,58
2022-10-06T21:26:28.087Z,57.7
2022-10-06T21:31:28.240Z,57.8
2022-10-06T21:51:28.133Z,57.4
2022-10-06T21:56:28.132Z,57.3
2022-10-06T22:01:28.229Z,57.4
2022-10-06T22:11:28.163Z,57.2
2022-10-06T22:16:28.182Z,57.3
2022-10-06T22:26:28.190Z,57.1
2022-10-06T22:36:28.173Z,57
2022-10-06T22:46:28.204Z,56.9
2022-10-06T23:06:28.138Z,56.8
2022-10-06T23:11:28.116Z,56.7
2022-10-06T23:16:28.253Z,56.8
2022-10-06T23:21:28.136Z,56.7
2022-10-06T23:31:28.300Z,56.6
2022-10-06T23:36:28.136Z,56.6
2022-10-06T23:46:28.151Z,56.5
2022-10-06T23:56:28.226Z,56.5
